createdAt,value
2022-11-24T00:03:23.173Z,25.90
2022-11-24T00:08:24.796Z,24.98
2022-11-24T00:13:26.375Z,25.17
2022-11-24T00:18:28.012Z,23.20
2022-11-24T00:23:29.599Z,24.65
2022-11-24T00:28:31.194Z,25.92
2022-11-24T00:33:32.790Z,26.80
2022-11-24T00:38:34.384Z,27.00
2022-11-24T00:43:36.005Z,29.35
2022-11-24T00:48:37.588Z,31.33
2022-11-24T00:53:39.197Z,28.10
2022-11-24T00:58:40.824Z,28.77
2022-11-24T01:03:42.380Z,29.67
2022-11-24T01:14:10.033Z,27.58
2022-11-24T01:19:11.602Z,26.80
2022-11-24T01:24:13.174Z,27.90
2022-11-24T01:29:14.759Z,28.92
2022-11-24T01:34:16.343Z,27.63
2022-11-24T01:39:17.944Z,29.10
2022-11-24T01:44:19.565Z,27.83
2022-11-24T01:49:21.182Z,29.98
2022-11-24T01:54:22.789Z,32.95
2022-11-24T01:59:24.372Z,31.05
2022-11-24T02:04:25.968Z,32.72
2022-11-24T02:09:27.534Z,31.65
2022-11-24T02:14:29.136Z,32.38
2022-11-24T02:19:30.709Z,30.40
2022-11-24T02:24:32.626Z,29.30
2022-11-24T02:29:34.431Z,29.10
2022-11-24T02:34:36.209Z,29.80
2022-11-24T02:39:37.931Z,29.42
2022-11-24T02:44:39.540Z,29.08
2022-11-24T02:49:41.138Z,28.10
2022-11-24T02:54:42.727Z,29.63
2022-11-24T02:59:44.326Z,28.85
2022-11-24T03:04:45.924Z,29.80
2022-11-24T03:09:47.525Z,32.33
2022-11-24T03:14:49.135Z,33.95
2022-11-24T03:19:50.720Z,40.53
2022-11-24T03:24:52.293Z,48.08
2022-11-24T03:29:53.891Z,62.90
2022-11-24T03:34:55.488Z,71.78
2022-11-24T03:39:57.125Z,72.55
2022-11-24T03:45:04.195Z,59.38
2022-11-24T03:50:18.490Z,50.00
2022-11-24T03:55:20.099Z,50.70
2022-11-24T04:00:21.694Z,45.40
2022-11-24T04:05:23.285Z,38.75
2022-11-24T04:10:24.878Z,35.65
2022-11-24T04:15:26.502Z,36.78
2022-11-24T04:20:28.095Z,33.80
2022-11-24T04:25:29.671Z,35.65
2022-11-24T04:30:31.245Z,34.85
2022-11-24T04:35:32.840Z,35.30
2022-11-24T04:40:34.421Z,36.00
2022-11-24T04:45:35.996Z,37.40
2022-11-24T04:50:37.570Z,36.72
2022-11-24T04:55:39.144Z,35.13
2022-11-24T05:00:40.731Z,36.42
2022-11-24T05:05:42.288Z,40.75
2022-11-24T05:10:43.811Z,38.42
2022-11-24T05:15:45.397Z,38.25
2022-11-24T05:20:46.958Z,38.58
2022-11-24T05:25:48.486Z,37.25
2022-11-24T05:30:50.016Z,36.00
2022-11-24T05:35:51.533Z,39.08
2022-11-24T05:40:53.053Z,37.33
2022-11-24T05:45:54.598Z,39.90
2022-11-24T05:50:56.144Z,36.85
2022-11-24T06:01:16.646Z,38.33
2022-11-24T06:06:18.129Z,38.75
2022-11-24T06:11:19.612Z,42.13
2022-11-24T06:16:21.231Z,40.25
2022-11-24T06:21:22.768Z,45.60
2022-11-24T06:26:24.232Z,45.30
2022-11-24T06:31:25.764Z,45.38
2022-11-24T06:36:27.312Z,45.00
2022-11-24T06:41:28.819Z,35.30
2022-11-24T06:46:30.323Z,36.17
2022-11-24T06:51:31.828Z,46.53
2022-11-24T06:56:33.325Z,39.55
2022-11-24T07:01:34.820Z,42.13
2022-11-24T07:06:36.281Z,46.17
2022-11-24T07:11:37.779Z,45.17
2022-11-24T07:16:39.326Z,44.97
2022-11-24T07:21:40.805Z,43.90
2022-11-24T07:26:42.343Z,43.83
2022-11-24T07:31:43.862Z,44.95
2022-11-24T07:36:45.399Z,45.13
2022-11-24T07:41:46.848Z,42.38
2022-11-24T07:46:48.338Z,41.50
2022-11-24T07:51:49.826Z,42.17
2022-11-24T07:56:51.292Z,44.25
2022-11-24T08:01:52.774Z,45.40
2022-11-24T08:06:54.240Z,42.67
2022-11-24T08:11:55.709Z,42.38
2022-11-24T08:16:57.238Z,46.80
2022-11-24T08:21:58.736Z,41.53
2022-11-24T08:27:00.208Z,39.35
2022-11-24T08:32:01.744Z,39.42
2022-11-24T08:37:03.336Z,34.97
2022-11-24T08:42:04.903Z,34.92
2022-11-24T08:47:06.402Z,37.67
2022-11-24T08:52:07.898Z,39.10
2022-11-24T08:57:10.469Z,34.83
2022-11-24T09:02:11.949Z,35.78
2022-11-24T09:07:13.514Z,34.40
2022-11-24T09:12:15.033Z,33.63
2022-11-24T09:17:16.525Z,31.17
2022-11-24T09:22:18.037Z,31.15
2022-11-24T09:27:19.497Z,31.35
2022-11-24T09:32:20.979Z,27.02
2022-11-24T09:37:22.476Z,28.27
2022-11-24T09:42:23.969Z,24.05
2022-11-24T09:47:25.436Z,27.80
2022-11-24T09:52:26.925Z,27.48
2022-11-24T09:57:32.655Z,26.70
2022-11-24T10:02:37.255Z,25.67
2022-11-24T10:07:38.820Z,24.30
2022-11-24T10:12:40.383Z,26.40
2022-11-24T10:17:41.873Z,27.70
2022-11-24T10:22:43.374Z,27.80
2022-11-24T10:27:44.893Z,27.88
2022-11-24T10:32:46.431Z,29.20
2022-11-24T10:37:47.894Z,28.05
2022-11-24T10:42:49.390Z,29.85
2022-11-24T10:47:50.894Z,28.17
2022-11-24T10:52:52.398Z,29.95
2022-11-24T10:57:53.897Z,29.70
2022-11-24T11:02:55.459Z,30.45
2022-11-24T11:08:00.965Z,28.38
2022-11-24T11:24:38.492Z,30.40
2022-11-24T11:35:01.457Z,30.42
2022-11-24T11:40:02.947Z,31.45
2022-11-24T11:45:04.454Z,31.77
2022-11-24T11:50:05.957Z,33.63
2022-11-24T11:55:07.439Z,31.05
2022-11-24T12:00:08.948Z,31.67
2022-11-24T12:05:10.531Z,33.90
2022-11-24T12:10:12.082Z,31.65
2022-11-24T12:15:13.621Z,33.15
2022-11-24T12:20:15.152Z,32.55
2022-11-24T12:25:16.630Z,32.92
2022-11-24T12:30:18.135Z,32.95
2022-11-24T12:35:19.658Z,31.92
2022-11-24T12:40:21.130Z,31.20
2022-11-24T12:45:22.626Z,32.47
2022-11-24T12:50:24.165Z,30.77
2022-11-24T12:55:25.726Z,31.40
2022-11-24T13:00:27.239Z,30.27
2022-11-24T13:05:28.767Z,31.98
2022-11-24T13:10:54.247Z,32.08
2022-11-24T13:16:13.092Z,30.50
2022-11-24T13:21:13.313Z,34.45
2022-11-24T13:26:14.837Z,36.58
2022-11-24T13:31:16.410Z,37.53
2022-11-24T13:36:17.894Z,37.00
2022-11-24T13:41:28.493Z,36.00
2022-11-24T13:46:30.420Z,33.97
2022-11-24T13:51:31.961Z,32.60
2022-11-24T13:56:33.451Z,33.28
2022-11-24T14:01:34.947Z,32.13
2022-11-24T14:06:36.480Z,34.53
2022-11-24T14:11:37.982Z,33.00
2022-11-24T14:16:39.465Z,32.85
2022-11-24T14:21:40.931Z,34.25
2022-11-24T14:26:42.390Z,35.25
2022-11-24T14:31:43.982Z,32.90
2022-11-24T14:36:45.547Z,32.72
2022-11-24T14:41:47.061Z,32.55
2022-11-24T14:46:48.639Z,34.40
2022-11-24T14:51:50.157Z,34.58
2022-11-24T14:56:51.630Z,33.17
2022-11-24T15:01:53.147Z,33.95
2022-11-24T15:06:54.662Z,34.45
2022-11-24T15:11:56.145Z,33.47
2022-11-24T15:16:57.652Z,31.73
2022-11-24T15:21:59.130Z,32.00
2022-11-24T15:27:00.602Z,32.70
2022-11-24T15:32:02.085Z,34.05
2022-11-24T15:37:03.606Z,33.97
2022-11-24T15:42:05.122Z,32.25
2022-11-24T15:47:06.654Z,40.05
2022-11-24T15:52:08.174Z,33.42
2022-11-24T15:57:09.680Z,32.60
2022-11-24T16:02:11.288Z,31.88
2022-11-24T16:07:12.856Z,33.13
2022-11-24T16:12:14.419Z,32.00
2022-11-24T16:17:15.932Z,33.00
2022-11-24T16:22:17.467Z,36.47
2022-11-24T16:27:19.005Z,39.95
2022-11-24T16:32:20.502Z,39.30
2022-11-24T16:37:22.005Z,36.28
2022-11-24T16:42:23.527Z,37.97
2022-11-24T16:47:25.032Z,42.30
2022-11-24T16:52:26.527Z,39.05
2022-11-24T16:57:28.031Z,38.13
2022-11-24T17:02:29.600Z,36.28
2022-11-24T17:07:31.291Z,37.38
2022-11-24T17:12:32.830Z,44.45
2022-11-24T17:17:34.331Z,61.95
2022-11-24T17:22:35.836Z,47.53
2022-11-24T17:27:37.330Z,52.38
2022-11-24T17:32:38.803Z,46.97
2022-11-24T17:37:40.319Z,47.85
2022-11-24T17:42:41.837Z,44.10
2022-11-24T17:47:43.313Z,42.60
2022-11-24T17:52:44.805Z,40.65
2022-11-24T17:57:46.310Z,40.42
2022-11-24T18:02:47.830Z,41.13
2022-11-24T18:07:49.413Z,43.28
2022-11-24T18:12:50.975Z,46.40
2022-11-24T18:17:52.502Z,44.25
2022-11-24T18:23:09.310Z,45.90
2022-11-24T18:28:10.834Z,45.70
2022-11-24T18:33:12.346Z,44.08
2022-11-24T18:38:13.805Z,42.78
2022-11-24T18:43:15.294Z,44.78
2022-11-24T18:48:16.787Z,43.05
2022-11-24T18:53:18.293Z,50.13
2022-11-24T18:58:19.802Z,51.53
2022-11-24T19:03:21.293Z,52.60
2022-11-24T19:08:22.795Z,46.17
2022-11-24T19:13:24.318Z,46.15
2022-11-24T19:18:25.863Z,45.40
2022-11-24T19:23:27.356Z,47.88
2022-11-24T19:28:28.881Z,48.15
2022-11-24T19:33:30.394Z,46.72
2022-11-24T19:38:31.878Z,52.13
2022-11-24T19:43:33.431Z,52.90
2022-11-24T19:48:34.938Z,49.08
2022-11-24T19:53:36.494Z,47.33
2022-11-24T19:58:38.000Z,47.58
2022-11-24T20:03:39.509Z,48.08
2022-11-24T20:08:41.030Z,49.30
2022-11-24T20:13:42.541Z,51.67
2022-11-24T20:18:44.056Z,53.65
2022-11-24T20:23:45.563Z,52.35
2022-11-24T20:28:47.068Z,48.17
2022-11-24T20:33:48.578Z,50.83
2022-11-24T20:38:50.067Z,48.42
2022-11-24T20:43:51.550Z,49.90
2022-11-24T20:48:53.045Z,49.83
2022-11-24T20:53:54.575Z,48.78
2022-11-24T20:58:56.109Z,49.00
2022-11-24T21:03:57.578Z,49.95
2022-11-24T21:09:03.457Z,48.95
2022-11-24T21:14:05.575Z,48.65
2022-11-24T21:19:07.100Z,49.92
2022-11-24T21:24:08.630Z,50.15
2022-11-24T21:29:10.163Z,58.03
2022-11-24T21:34:11.654Z,51.78
2022-11-24T21:39:13.190Z,51.53
2022-11-24T21:44:14.811Z,52.20
2022-11-24T21:49:16.295Z,60.15
2022-11-24T21:54:17.770Z,56.70
2022-11-24T21:59:19.249Z,53.58
2022-11-24T22:04:20.770Z,55.35
2022-11-24T22:09:22.291Z,61.08
2022-11-24T22:14:23.801Z,60.53
2022-11-24T22:19:25.297Z,56.92
2022-11-24T22:24:27.501Z,53.17
2022-11-24T22:29:29.050Z,54.40
2022-11-24T22:34:30.545Z,54.13
2022-11-24T22:39:32.070Z,54.72
2022-11-24T22:44:33.820Z,53.22
2022-11-24T22:49:35.573Z,54.75
2022-11-24T22:54:37.382Z,49.50
2022-11-24T22:59:39.217Z,45.95
2022-11-24T23:04:40.785Z,41.90
2022-11-24T23:09:42.312Z,41.22
2022-11-24T23:14:43.810Z,39.97
2022-11-24T23:19:45.309Z,39.78
2022-11-24T23:24:46.838Z,37.45
2022-11-24T23:29:48.367Z,38.20
2022-11-24T23:34:49.897Z,32.80
2022-11-24T23:39:51.371Z,31.98
2022-11-24T23:44:52.890Z,36.42
2022-11-24T23:49:54.404Z,33.17
2022-11-24T23:54:55.893Z,34.28
2022-11-24T23:59:57.385Z,33.65
